createdAt,value
2017-12-02T00:00:29.281Z,14.90
2017-12-02T00:01:29.270Z,14.90
2017-12-02T00:02:29.260Z,15.60
2017-12-02T00:03:29.249Z,15.30
2017-12-02T00:04:29.240Z,14.80
2017-12-02T00:05:29.230Z,14.00
2017-12-02T00:06:29.220Z,14.60
2017-12-02T00:07:29.209Z,15.00
2017-12-02T00:08:29.200Z,14.70
2017-12-02T00:09:29.189Z,14.60
2017-12-02T00:10:29.178Z,15.20
2017-12-02T00:11:29.167Z,14.80
2017-12-02T00:12:29.157Z,15.40
2017-12-02T00:13:29.148Z,15.70
2017-12-02T00:14:29.137Z,16.00
2017-12-02T00:15:29.127Z,16.90
2017-12-02T00:16:29.116Z,15.60
2017-12-02T00:17:29.107Z,15.60
2017-12-02T00:18:29.104Z,15.90
2017-12-02T00:19:29.085Z,16.10
2017-12-02T00:20:29.077Z,15.60
2017-12-02T00:21:29.118Z,14.90
2017-12-02T00:22:29.056Z,15.90
2017-12-02T00:23:29.045Z,16.60
2017-12-02T00:24:29.034Z,15.80
2017-12-02T00:25:29.025Z,15.30
2017-12-02T00:26:29.013Z,14.80
2017-12-02T00:27:29.004Z,14.50
2017-12-02T00:28:29.001Z,15.00
2017-12-02T00:29:28.984Z,14.10
2017-12-02T00:30:28.974Z,16.00
2017-12-02T00:31:28.966Z,15.10
2017-12-02T00:32:28.954Z,14.50
2017-12-02T00:33:28.942Z,14.70
2017-12-02T00:34:28.935Z,14.60
2017-12-02T00:35:28.925Z,15.00
2017-12-02T00:36:28.915Z,14.40
2017-12-02T00:37:28.902Z,15.50
2017-12-02T00:38:28.890Z,14.90
2017-12-02T00:39:28.887Z,14.80
2017-12-02T00:40:28.870Z,16.00
2017-12-02T00:41:28.861Z,15.90
2017-12-02T00:42:28.851Z,16.80
2017-12-02T00:43:28.840Z,15.90
2017-12-02T00:44:28.832Z,15.60
2017-12-02T00:45:28.820Z,16.10
2017-12-02T00:46:28.809Z,15.60
2017-12-02T00:47:28.802Z,15.40
2017-12-02T00:48:28.787Z,15.40
2017-12-02T00:49:28.778Z,14.80
2017-12-02T00:50:28.769Z,14.80
2017-12-02T00:51:28.758Z,14.50
2017-12-02T00:52:28.747Z,14.90
2017-12-02T00:53:28.738Z,14.70
2017-12-02T00:54:28.727Z,15.40
2017-12-02T00:55:28.719Z,15.70
2017-12-02T00:56:28.704Z,16.20
2017-12-02T00:57:28.696Z,16.70
2017-12-02T00:58:28.686Z,17.20
2017-12-02T00:59:28.675Z,16.10
2017-12-02T01:00:28.666Z,15.10
2017-12-02T01:01:28.656Z,15.20
2017-12-02T01:02:28.645Z,15.10
2017-12-02T01:03:28.634Z,14.50
2017-12-02T01:04:28.623Z,16.40
2017-12-02T01:05:28.612Z,16.50
2017-12-02T01:06:28.604Z,16.60
2017-12-02T01:07:28.594Z,17.20
2017-12-02T01:08:28.583Z,19.20
2017-12-02T01:09:28.574Z,20.30
2017-12-02T01:10:28.569Z,19.60
2017-12-02T01:11:28.556Z,19.00
2017-12-02T01:12:28.543Z,18.60
2017-12-02T01:13:28.533Z,18.10
2017-12-02T01:14:28.523Z,17.20
2017-12-02T01:15:28.512Z,15.90
2017-12-02T01:16:28.502Z,16.60
2017-12-02T01:17:28.492Z,15.50
2017-12-02T01:18:28.479Z,16.40
2017-12-02T01:19:28.471Z,15.50
2017-12-02T01:20:28.460Z,15.10
2017-12-02T01:21:28.449Z,15.90
2017-12-02T01:22:28.439Z,15.40
2017-12-02T01:23:28.430Z,15.80
2017-12-02T01:24:28.418Z,16.60
2017-12-02T01:25:28.408Z,16.20
2017-12-02T01:26:28.407Z,14.80
2017-12-02T01:27:28.390Z,15.70
2017-12-02T01:28:28.378Z,15.70
2017-12-02T01:29:28.367Z,15.80
2017-12-02T01:30:28.356Z,15.00
2017-12-02T01:31:28.347Z,14.60
2017-12-02T01:32:28.334Z,15.20
2017-12-02T01:33:28.326Z,14.50
2017-12-02T01:34:28.315Z,14.00
2017-12-02T01:35:28.305Z,14.70
2017-12-02T01:36:28.295Z,14.30
2017-12-02T01:37:28.282Z,14.10
2017-12-02T01:38:28.275Z,14.20
2017-12-02T01:39:28.264Z,14.10
2017-12-02T01:40:28.256Z,14.60
2017-12-02T01:41:28.252Z,14.40
2017-12-02T01:42:28.234Z,14.30
2017-12-02T01:43:28.229Z,14.00
2017-12-02T01:44:28.215Z,14.40
2017-12-02T01:45:28.205Z,14.30
2017-12-02T01:46:28.193Z,14.00
2017-12-02T01:47:28.180Z,14.10
2017-12-02T01:48:28.173Z,14.70
2017-12-02T01:49:28.162Z,14.30
2017-12-02T01:50:28.151Z,13.20
2017-12-02T01:51:28.142Z,13.70
2017-12-02T01:52:28.131Z,14.90
2017-12-02T01:53:28.119Z,14.30
2017-12-02T01:54:28.111Z,12.70
2017-12-02T01:55:28.099Z,13.90
2017-12-02T01:56:28.089Z,14.10
2017-12-02T01:57:28.078Z,14.50
2017-12-02T01:58:28.066Z,13.70
2017-12-02T01:59:28.058Z,14.40
2017-12-02T02:00:28.049Z,13.50
2017-12-02T02:01:28.038Z,13.60
2017-12-02T02:02:28.027Z,13.30
2017-12-02T02:03:28.016Z,13.70
2017-12-02T02:04:28.007Z,14.30
2017-12-02T02:05:27.995Z,13.10
2017-12-02T02:06:27.984Z,13.30
2017-12-02T02:07:27.976Z,13.50
2017-12-02T02:08:27.963Z,13.30
2017-12-02T02:09:27.953Z,13.90
2017-12-02T02:10:27.945Z,13.80
2017-12-02T02:11:27.938Z,13.40
2017-12-02T02:12:27.923Z,13.90
2017-12-02T02:13:27.914Z,12.80
2017-12-02T02:14:27.900Z,12.40
2017-12-02T02:15:27.890Z,13.60
2017-12-02T02:16:27.880Z,14.60
2017-12-02T02:17:27.869Z,14.50
2017-12-02T02:18:27.859Z,13.40
2017-12-02T02:19:27.849Z,13.80
2017-12-02T02:20:27.838Z,12.60
2017-12-02T02:21:27.829Z,13.10
2017-12-02T02:22:27.824Z,13.40
2017-12-02T02:23:27.808Z,12.70
2017-12-02T02:24:27.794Z,14.00
2017-12-02T02:25:27.789Z,13.40
2017-12-02T02:26:27.775Z,12.70
2017-12-02T02:27:27.763Z,12.10
2017-12-02T02:28:27.753Z,13.50
2017-12-02T02:29:27.744Z,13.10
2017-12-02T02:30:27.734Z,13.30
2017-12-02T02:31:27.724Z,13.60
2017-12-02T02:32:27.714Z,13.00
2017-12-02T02:33:27.704Z,13.80
2017-12-02T02:34:27.697Z,14.00
2017-12-02T02:35:27.703Z,13.60
2017-12-02T02:36:27.664Z,13.80
2017-12-02T02:37:27.649Z,13.20
2017-12-02T02:38:27.645Z,13.60
2017-12-02T02:39:27.632Z,13.30
2017-12-02T02:40:27.632Z,12.80
2017-12-02T02:41:27.619Z,12.70
2017-12-02T02:42:27.608Z,13.20
2017-12-02T02:43:27.599Z,13.10
2017-12-02T02:44:27.589Z,13.60
2017-12-02T02:45:27.577Z,13.20
2017-12-02T02:46:27.573Z,13.30
2017-12-02T02:47:27.563Z,12.80
2017-12-02T02:48:27.544Z,13.30
2017-12-02T02:49:27.526Z,13.00
2017-12-02T02:50:27.515Z,12.90
2017-12-02T02:51:27.506Z,13.60
2017-12-02T02:52:27.499Z,13.10
2017-12-02T02:53:27.494Z,13.20
2017-12-02T02:54:27.496Z,13.70
2017-12-02T02:55:27.472Z,15.10
2017-12-02T02:56:27.460Z,13.70
2017-12-02T02:57:27.450Z,13.10
2017-12-02T02:58:27.441Z,14.90
2017-12-02T02:59:27.429Z,13.80
2017-12-02T03:00:27.419Z,13.50
2017-12-02T03:01:27.406Z,12.90
2017-12-02T03:02:27.398Z,13.70
2017-12-02T03:03:27.390Z,13.50
2017-12-02T03:04:27.375Z,12.40
2017-12-02T03:05:27.362Z,14.40
2017-12-02T03:06:27.355Z,13.60
2017-12-02T03:07:27.343Z,13.20
2017-12-02T03:08:27.332Z,13.60
2017-12-02T03:09:27.322Z,13.40
2017-12-02T03:10:27.311Z,13.40
2017-12-02T03:11:27.302Z,13.60
2017-12-02T03:12:27.316Z,14.00
2017-12-02T03:13:27.278Z,14.20
2017-12-02T03:14:27.270Z,14.60
2017-12-02T03:15:27.258Z,14.40
2017-12-02T03:16:27.246Z,12.90
2017-12-02T03:17:27.237Z,12.80
2017-12-02T03:18:27.224Z,13.50
2017-12-02T03:19:27.214Z,13.00
2017-12-02T03:20:27.202Z,13.70
2017-12-02T03:21:27.194Z,13.90
2017-12-02T03:22:27.187Z,14.50
2017-12-02T03:23:27.173Z,14.10
2017-12-02T03:24:27.162Z,14.70
2017-12-02T03:25:27.151Z,13.50
2017-12-02T03:26:27.138Z,14.50
2017-12-02T03:27:27.130Z,14.60
2017-12-02T03:28:27.120Z,13.90
2017-12-02T03:29:27.110Z,14.70
2017-12-02T03:30:27.098Z,13.60
2017-12-02T03:31:27.089Z,14.60
2017-12-02T03:32:27.076Z,13.40
2017-12-02T03:33:27.077Z,14.10
2017-12-02T03:34:27.056Z,13.90
2017-12-02T03:35:27.043Z,15.10
2017-12-02T03:36:27.033Z,14.00
2017-12-02T03:37:27.023Z,13.50
2017-12-02T03:38:27.011Z,14.00
2017-12-02T03:39:27.001Z,14.00
2017-12-02T03:40:27.004Z,13.90
2017-12-02T03:41:26.979Z,13.50
2017-12-02T03:42:26.971Z,12.80
2017-12-02T03:43:26.960Z,13.70
2017-12-02T03:44:26.947Z,13.10
2017-12-02T03:45:26.937Z,13.60
2017-12-02T03:46:26.929Z,14.10
2017-12-02T03:47:26.915Z,13.90
2017-12-02T03:48:26.904Z,13.00
2017-12-02T03:49:26.895Z,13.70
2017-12-02T03:50:26.884Z,13.40
2017-12-02T03:51:26.877Z,13.30
2017-12-02T03:52:26.862Z,14.10
2017-12-02T03:53:26.852Z,14.20
2017-12-02T03:54:26.840Z,13.50
2017-12-02T03:55:26.831Z,12.20
2017-12-02T03:56:26.831Z,14.00
2017-12-02T03:57:26.812Z,13.70
2017-12-02T03:58:26.799Z,14.20
2017-12-02T03:59:26.791Z,13.30
2017-12-02T04:00:26.774Z,14.90
2017-12-02T04:01:26.767Z,13.20
2017-12-02T04:02:26.755Z,13.30
2017-12-02T04:03:26.745Z,13.20
2017-12-02T04:04:26.734Z,12.60
2017-12-02T04:05:26.725Z,13.10
2017-12-02T04:06:26.712Z,14.30
2017-12-02T04:07:26.702Z,12.60
2017-12-02T04:08:26.689Z,13.30
2017-12-02T04:09:26.678Z,13.50
2017-12-02T04:10:26.668Z,12.60
2017-12-02T04:11:26.660Z,13.40
2017-12-02T04:12:26.650Z,13.80
2017-12-02T04:13:26.636Z,13.20
2017-12-02T04:14:26.630Z,13.10
2017-12-02T04:15:26.615Z,12.60
2017-12-02T04:16:26.604Z,13.10
2017-12-02T04:17:26.594Z,13.60
2017-12-02T04:18:26.582Z,13.10
2017-12-02T04:19:26.573Z,12.90
2017-12-02T04:20:26.561Z,12.70
2017-12-02T04:21:26.551Z,12.80
2017-12-02T04:22:26.540Z,13.10
2017-12-02T04:23:26.530Z,13.50
2017-12-02T04:24:26.519Z,13.40
2017-12-02T04:25:26.508Z,13.30
2017-12-02T04:26:26.498Z,12.80
2017-12-02T04:27:26.488Z,13.90
2017-12-02T04:28:26.477Z,12.90
2017-12-02T04:29:26.463Z,13.40
2017-12-02T04:30:26.481Z,13.10
2017-12-02T04:31:26.444Z,13.00
2017-12-02T04:32:26.432Z,13.00
2017-12-02T04:33:26.419Z,13.30
2017-12-02T04:34:26.415Z,12.60
2017-12-02T04:35:26.400Z,13.40
2017-12-02T04:36:26.389Z,13.40
2017-12-02T04:37:26.378Z,12.40
2017-12-02T04:38:26.366Z,12.80
2017-12-02T04:39:26.355Z,13.50
2017-12-02T04:40:26.343Z,13.00
2017-12-02T04:41:26.333Z,13.30
2017-12-02T04:42:26.324Z,13.30
2017-12-02T04:43:26.313Z,12.10
2017-12-02T04:44:26.307Z,12.50
2017-12-02T04:45:26.288Z,12.30
2017-12-02T04:46:26.282Z,12.90
2017-12-02T04:47:26.268Z,13.50
2017-12-02T04:48:26.257Z,13.40
2017-12-02T04:49:26.247Z,13.00
2017-12-02T04:50:26.234Z,13.00
2017-12-02T04:51:26.224Z,12.70
2017-12-02T04:52:26.220Z,14.40
2017-12-02T04:53:26.210Z,13.90
2017-12-02T04:54:26.195Z,12.50
2017-12-02T04:55:26.182Z,12.70
2017-12-02T04:56:26.174Z,13.00
2017-12-02T04:57:26.161Z,13.30
2017-12-02T04:58:26.150Z,13.30
2017-12-02T04:59:26.149Z,12.20
2017-12-02T05:00:26.126Z,13.10
2017-12-02T05:01:26.115Z,12.20
2017-12-02T05:02:26.106Z,12.30
2017-12-02T05:03:26.094Z,13.50
2017-12-02T05:04:26.083Z,11.90
2017-12-02T05:05:26.073Z,12.60
2017-12-02T05:06:26.063Z,13.30
2017-12-02T05:07:26.051Z,14.10
2017-12-02T05:08:26.042Z,12.60
2017-12-02T05:09:26.029Z,12.10
2017-12-02T05:10:26.017Z,12.90
2017-12-02T05:11:26.009Z,12.20
2017-12-02T05:12:25.998Z,12.60
2017-12-02T05:13:25.986Z,12.70
2017-12-02T05:14:25.977Z,13.40
2017-12-02T05:15:25.968Z,12.80
2017-12-02T05:16:25.953Z,12.60
2017-12-02T05:17:25.944Z,13.00
2017-12-02T05:18:25.931Z,14.50
2017-12-02T05:19:25.920Z,13.30
2017-12-02T05:20:25.912Z,13.40
2017-12-02T05:21:25.898Z,13.10
2017-12-02T05:22:25.888Z,12.80
2017-12-02T05:23:25.877Z,12.90
2017-12-02T05:24:25.866Z,13.70
2017-12-02T05:25:25.855Z,13.60
2017-12-02T05:26:25.845Z,13.20
2017-12-02T05:27:25.836Z,13.60
2017-12-02T05:28:25.826Z,14.10
2017-12-02T05:29:25.812Z,13.90
2017-12-02T05:30:25.802Z,13.90
2017-12-02T05:31:25.796Z,13.50
2017-12-02T05:32:25.777Z,13.00
2017-12-02T05:33:25.768Z,13.50
2017-12-02T05:34:25.759Z,14.10
2017-12-02T05:35:25.746Z,13.40
2017-12-02T05:36:25.735Z,14.40
2017-12-02T05:37:25.726Z,13.50
2017-12-02T05:38:25.715Z,14.60
2017-12-02T05:39:25.703Z,15.20
2017-12-02T05:40:25.693Z,15.20
2017-12-02T05:41:25.680Z,14.50
2017-12-02T05:42:25.670Z,13.30
2017-12-02T05:43:25.659Z,14.30
2017-12-02T05:44:25.648Z,14.50
2017-12-02T05:45:25.637Z,14.40
2017-12-02T05:46:25.626Z,15.10
2017-12-02T05:47:25.619Z,14.40
2017-12-02T05:48:25.605Z,14.80
2017-12-02T05:49:25.596Z,14.70
2017-12-02T05:50:25.584Z,14.00
2017-12-02T05:51:25.577Z,14.90
2017-12-02T05:52:25.572Z,16.00
2017-12-02T05:53:25.552Z,15.40
2017-12-02T05:54:25.542Z,16.80
2017-12-02T05:55:25.531Z,16.60
2017-12-02T05:56:25.517Z,16.90
2017-12-02T05:57:25.509Z,18.50
2017-12-02T05:58:25.501Z,18.00
2017-12-02T05:59:25.487Z,17.30
2017-12-02T06:00:25.475Z,18.90
2017-12-02T06:01:25.466Z,19.80
2017-12-02T06:02:25.457Z,19.60
2017-12-02T06:03:25.444Z,20.10
2017-12-02T06:04:25.432Z,20.20
2017-12-02T06:05:25.425Z,20.70
2017-12-02T06:06:25.412Z,21.10
2017-12-02T06:07:25.402Z,20.20
2017-12-02T06:08:25.390Z,23.00
2017-12-02T06:09:25.380Z,20.80
2017-12-02T06:10:25.368Z,20.30
2017-12-02T06:11:25.359Z,20.20
2017-12-02T06:12:25.349Z,19.70
2017-12-02T06:13:25.337Z,21.10
2017-12-02T06:14:25.326Z,20.10
2017-12-02T06:15:25.315Z,20.30
2017-12-02T06:16:25.303Z,22.70
2017-12-02T06:17:25.293Z,22.40
2017-12-02T06:18:25.286Z,20.60
2017-12-02T06:19:25.273Z,19.60
2017-12-02T06:20:25.262Z,20.70
2017-12-02T06:21:25.252Z,21.60
2017-12-02T06:22:25.241Z,20.80
2017-12-02T06:23:25.232Z,20.80
2017-12-02T06:24:25.221Z,20.40
2017-12-02T06:25:25.209Z,20.20
2017-12-02T06:26:25.201Z,19.40
2017-12-02T06:27:25.186Z,20.70
2017-12-02T06:28:25.176Z,19.60
2017-12-02T06:29:25.168Z,19.60
2017-12-02T06:30:25.156Z,19.70
2017-12-02T06:31:25.146Z,20.30
2017-12-02T06:32:25.132Z,20.00
2017-12-02T06:33:25.124Z,19.70
2017-12-02T06:34:25.112Z,19.80
2017-12-02T06:35:25.104Z,19.60
2017-12-02T06:36:25.090Z,20.30
2017-12-02T06:37:25.080Z,21.20
2017-12-02T06:38:25.071Z,19.60
2017-12-02T06:39:25.061Z,21.20
2017-12-02T06:40:25.048Z,19.50
2017-12-02T06:41:25.039Z,19.90
2017-12-02T06:42:25.028Z,21.50
2017-12-02T06:43:25.016Z,19.80
2017-12-02T06:44:25.006Z,20.60
2017-12-02T06:45:24.997Z,20.20
2017-12-02T06:46:24.986Z,21.70
2017-12-02T06:47:24.974Z,20.70
2017-12-02T06:48:24.972Z,21.40
2017-12-02T06:49:24.952Z,19.20
2017-12-02T06:50:24.942Z,21.30
2017-12-02T06:51:24.935Z,21.20
2017-12-02T06:52:24.924Z,20.60
2017-12-02T06:53:24.911Z,20.30
2017-12-02T06:54:24.903Z,25.20
2017-12-02T06:55:24.890Z,21.40
2017-12-02T06:56:24.880Z,22.80
2017-12-02T06:57:24.869Z,24.70
2017-12-02T06:58:24.858Z,23.70
2017-12-02T06:59:24.852Z,21.30
2017-12-02T07:00:24.838Z,20.80
2017-12-02T07:01:24.827Z,23.20
2017-12-02T07:02:24.815Z,23.70
2017-12-02T07:03:24.808Z,23.10
2017-12-02T07:04:24.794Z,22.20
2017-12-02T07:05:24.786Z,22.70
2017-12-02T07:06:24.776Z,24.10
2017-12-02T07:07:24.772Z,24.10
2017-12-02T07:08:24.768Z,22.80
2017-12-02T07:09:24.742Z,23.10
2017-12-02T07:10:24.821Z,22.80
2017-12-02T07:11:24.712Z,23.60
2017-12-02T07:12:24.718Z,24.70
2017-12-02T07:13:24.702Z,24.60
2017-12-02T07:14:24.688Z,23.60
2017-12-02T07:15:24.672Z,24.30
2017-12-02T07:16:24.728Z,25.60
2017-12-02T07:17:24.656Z,24.40
2017-12-02T07:18:24.655Z,23.70
2017-12-02T07:19:24.645Z,25.90
2017-12-02T07:20:24.681Z,25.20
2017-12-02T07:21:24.606Z,24.40
2017-12-02T07:22:24.607Z,24.10
2017-12-02T07:23:24.588Z,24.40
2017-12-02T07:24:24.582Z,24.70
2017-12-02T07:25:24.576Z,25.10
2017-12-02T07:26:24.566Z,25.00
2017-12-02T07:27:24.555Z,26.30
2017-12-02T07:28:24.544Z,25.80
2017-12-02T07:29:24.534Z,25.20
2017-12-02T07:30:24.523Z,26.20
2017-12-02T07:31:24.512Z,25.90
2017-12-02T07:32:24.502Z,27.00
2017-12-02T07:33:24.490Z,26.30
2017-12-02T07:34:24.481Z,26.40
2017-12-02T07:35:24.471Z,27.20
2017-12-02T07:36:24.461Z,27.20
2017-12-02T07:37:24.460Z,26.40
2017-12-02T07:38:24.439Z,27.70
2017-12-02T07:39:24.429Z,27.00
2017-12-02T07:40:24.419Z,29.20
2017-12-02T07:41:24.411Z,28.20
2017-12-02T07:42:24.398Z,27.60
2017-12-02T07:43:24.387Z,28.10
2017-12-02T07:44:24.375Z,27.60
2017-12-02T07:45:24.366Z,28.80
2017-12-02T07:46:24.358Z,27.10
2017-12-02T07:47:24.344Z,27.40
2017-12-02T07:52:25.954Z,28.80
2017-12-02T07:53:25.922Z,29.00
2017-12-02T07:55:18.792Z,29.60
2017-12-02T07:56:18.792Z,29.80
2017-12-02T07:58:11.613Z,30.40
2017-12-02T07:59:11.599Z,30.10
2017-12-02T08:01:04.610Z,30.50
2017-12-02T08:02:04.464Z,30.10
2017-12-02T08:03:57.377Z,28.20
2017-12-02T08:04:57.324Z,28.50
2017-12-02T08:05:57.314Z,30.70
2017-12-02T08:06:57.304Z,30.00
2017-12-02T08:07:57.294Z,29.30
2017-12-02T08:08:57.338Z,32.40
2017-12-02T08:09:57.275Z,30.10
2017-12-02T08:10:57.263Z,32.70
2017-12-02T08:11:57.254Z,29.50
2017-12-02T08:12:57.240Z,31.50
2017-12-02T08:13:57.231Z,29.60
2017-12-02T08:14:57.221Z,28.70
2017-12-02T08:15:57.212Z,30.60
2017-12-02T08:16:57.200Z,28.60
2017-12-02T08:17:57.190Z,26.90
2017-12-02T08:18:57.181Z,27.70
2017-12-02T08:19:57.172Z,27.40
2017-12-02T08:20:57.159Z,28.90
2017-12-02T08:21:57.149Z,27.80
2017-12-02T08:22:57.141Z,28.60
2017-12-02T08:23:57.132Z,29.60
2017-12-02T08:24:57.119Z,27.60
2017-12-02T08:25:57.110Z,30.30
2017-12-02T08:26:57.100Z,30.00
2017-12-02T08:27:57.089Z,30.60
2017-12-02T08:28:57.077Z,29.50
2017-12-02T08:29:57.068Z,28.40
2017-12-02T08:30:57.060Z,28.10
2017-12-02T08:31:57.050Z,26.70
2017-12-02T08:32:57.039Z,29.60
2017-12-02T08:33:57.029Z,27.10
2017-12-02T08:34:57.019Z,25.10
2017-12-02T08:35:57.009Z,28.00
2017-12-02T08:36:56.998Z,27.20
2017-12-02T08:37:56.989Z,27.00
2017-12-02T08:38:56.979Z,30.40
2017-12-02T08:39:56.972Z,32.00
2017-12-02T08:40:56.955Z,29.10
2017-12-02T08:41:56.947Z,30.50
2017-12-02T08:42:56.939Z,29.00
2017-12-02T08:43:56.930Z,28.40
2017-12-02T08:44:56.917Z,28.40
2017-12-02T08:45:56.907Z,25.30
2017-12-02T08:46:56.898Z,27.80
2017-12-02T08:47:56.887Z,26.10
2017-12-02T08:48:56.877Z,26.10
2017-12-02T08:49:56.866Z,26.60
2017-12-02T08:50:56.857Z,29.80
2017-12-02T08:51:56.847Z,26.50
2017-12-02T08:52:56.834Z,27.30
2017-12-02T08:53:56.826Z,27.30
2017-12-02T08:54:56.816Z,27.40
2017-12-02T08:55:56.804Z,28.80
2017-12-02T08:56:56.796Z,28.90
2017-12-02T08:57:56.784Z,30.10
2017-12-02T08:58:56.776Z,27.10
2017-12-02T08:59:56.765Z,29.60
2017-12-02T09:00:56.753Z,33.10
2017-12-02T09:01:56.743Z,35.00
2017-12-02T09:02:56.734Z,31.90
2017-12-02T09:03:56.723Z,31.00
2017-12-02T09:04:56.713Z,32.70
2017-12-02T09:05:56.702Z,31.60
2017-12-02T09:06:56.695Z,30.60
2017-12-02T09:07:56.685Z,32.10
2017-12-02T09:08:56.673Z,31.30
2017-12-02T09:09:56.663Z,35.50
2017-12-02T09:10:56.653Z,29.60
2017-12-02T09:11:56.643Z,32.80
2017-12-02T09:12:56.632Z,34.00
2017-12-02T09:13:56.622Z,33.30
2017-12-02T09:14:56.612Z,34.30
2017-12-02T09:15:56.602Z,32.40
2017-12-02T09:16:56.592Z,34.20
2017-12-02T09:17:56.581Z,33.70
2017-12-02T09:18:56.572Z,33.20
2017-12-02T09:19:56.563Z,32.10
2017-12-02T09:20:56.553Z,33.80
2017-12-02T09:21:56.544Z,33.20
2017-12-02T09:22:56.532Z,34.10
2017-12-02T09:23:56.528Z,33.20
2017-12-02T09:24:56.512Z,31.70
2017-12-02T09:25:56.503Z,30.40
2017-12-02T09:26:56.493Z,33.00
2017-12-02T09:27:56.485Z,35.10
2017-12-02T09:28:56.519Z,31.60
2017-12-02T09:29:56.466Z,30.40
2017-12-02T09:30:56.455Z,35.30
2017-12-02T09:31:56.444Z,33.90
2017-12-02T09:32:56.434Z,33.00
2017-12-02T09:33:56.425Z,30.60
2017-12-02T09:34:56.419Z,31.40
2017-12-02T09:35:56.406Z,30.90
2017-12-02T09:36:56.397Z,31.70
2017-12-02T09:37:56.390Z,31.50
2017-12-02T09:38:56.379Z,34.20
2017-12-02T09:39:56.367Z,36.20
2017-12-02T09:40:56.356Z,35.40
2017-12-02T09:41:56.347Z,34.40
2017-12-02T09:42:56.336Z,35.60
2017-12-02T09:43:56.328Z,36.20
2017-12-02T09:44:56.316Z,36.30
2017-12-02T09:45:56.310Z,35.30
2017-12-02T09:46:56.302Z,34.40
2017-12-02T09:47:56.289Z,33.80
2017-12-02T09:48:56.280Z,32.90
2017-12-02T09:49:56.268Z,33.50
2017-12-02T09:50:56.266Z,33.60
2017-12-02T09:51:56.250Z,33.60
2017-12-02T09:52:56.241Z,31.70
2017-12-02T09:53:56.231Z,33.40
2017-12-02T09:54:56.225Z,31.80
2017-12-02T09:55:56.213Z,32.40
2017-12-02T09:56:56.203Z,30.20
2017-12-02T09:57:56.192Z,30.00
2017-12-02T09:58:56.184Z,31.30
2017-12-02T09:59:56.174Z,32.00
2017-12-02T10:00:56.164Z,36.00
2017-12-02T10:01:56.155Z,33.90
2017-12-02T10:02:56.146Z,33.40
2017-12-02T10:03:56.149Z,34.50
2017-12-02T10:04:56.126Z,32.20
2017-12-02T10:05:56.121Z,33.70
2017-12-02T10:06:56.112Z,35.60
2017-12-02T10:07:56.098Z,36.30
2017-12-02T10:08:56.090Z,34.20
2017-12-02T10:09:56.078Z,34.60
2017-12-02T10:10:56.070Z,37.70
2017-12-02T10:11:56.060Z,38.10
2017-12-02T10:12:56.051Z,37.20
2017-12-02T10:13:56.042Z,35.30
2017-12-02T10:14:56.032Z,36.80
2017-12-02T10:15:56.024Z,36.90
2017-12-02T10:16:56.015Z,36.90
2017-12-02T10:17:56.004Z,34.40
2017-12-02T10:18:55.992Z,34.10
2017-12-02T10:19:55.987Z,35.60
2017-12-02T10:20:55.973Z,34.00
2017-12-02T10:21:55.967Z,32.70
2017-12-02T10:22:55.964Z,34.00
2017-12-02T10:23:55.949Z,32.00
2017-12-02T10:24:55.938Z,34.10
2017-12-02T10:25:55.930Z,33.30
2017-12-02T10:26:55.919Z,34.50
2017-12-02T10:27:55.910Z,38.00
2017-12-02T10:28:55.901Z,36.90
2017-12-02T10:29:55.890Z,35.60
2017-12-02T10:30:55.883Z,35.80
2017-12-02T10:31:55.872Z,35.90
2017-12-02T10:32:55.864Z,38.70
2017-12-02T10:33:55.853Z,40.90
2017-12-02T10:34:55.844Z,37.00
2017-12-02T10:35:55.836Z,34.40
2017-12-02T10:36:55.825Z,49.10
2017-12-02T10:37:55.819Z,62.40
2017-12-02T10:38:55.807Z,70.00
2017-12-02T10:39:55.798Z,59.80
2017-12-02T10:40:55.789Z,38.00
2017-12-02T10:41:55.779Z,39.20
2017-12-02T10:42:55.770Z,35.30
2017-12-02T10:43:55.761Z,31.40
2017-12-02T10:44:55.750Z,29.90
2017-12-02T10:45:55.743Z,33.10
2017-12-02T10:46:55.732Z,46.00
2017-12-02T10:47:55.723Z,44.40
2017-12-02T10:48:55.714Z,41.00
2017-12-02T10:49:55.703Z,36.20
2017-12-02T10:50:55.694Z,32.40
2017-12-02T10:51:55.685Z,31.00
2017-12-02T10:52:55.676Z,29.30
2017-12-02T10:53:55.666Z,32.40
2017-12-02T10:54:55.663Z,34.80
2017-12-02T10:55:55.648Z,41.30
2017-12-02T10:56:55.638Z,53.80
2017-12-02T10:57:55.630Z,74.60
2017-12-02T10:58:55.620Z,73.80
2017-12-02T10:59:55.612Z,80.90
2017-12-02T11:00:55.605Z,81.70
2017-12-02T11:01:55.593Z,59.40
2017-12-02T11:02:55.584Z,48.30
2017-12-02T11:03:55.574Z,43.80
2017-12-02T11:04:55.563Z,44.80
2017-12-02T11:05:55.560Z,41.20
2017-12-02T11:06:55.549Z,44.80
2017-12-02T11:07:55.537Z,41.50
2017-12-02T11:08:55.528Z,36.80
2017-12-02T11:09:55.521Z,33.80
2017-12-02T11:10:55.515Z,33.50
2017-12-02T11:11:55.501Z,34.10
2017-12-02T11:12:55.492Z,32.90
2017-12-02T11:13:55.482Z,30.50
2017-12-02T11:14:55.473Z,31.60
2017-12-02T11:15:55.467Z,31.40
2017-12-02T11:16:55.455Z,29.40
2017-12-02T11:17:55.451Z,27.50
2017-12-02T11:18:55.437Z,27.20
2017-12-02T11:19:55.428Z,28.60
2017-12-02T11:20:55.419Z,28.90
2017-12-02T11:21:55.409Z,30.10
2017-12-02T11:22:55.401Z,28.40
2017-12-02T11:23:55.390Z,28.20
2017-12-02T11:24:55.384Z,26.20
2017-12-02T11:25:55.375Z,27.60
2017-12-02T11:26:55.364Z,27.20
2017-12-02T11:27:55.355Z,27.40
2017-12-02T11:28:55.345Z,26.40
2017-12-02T11:29:55.349Z,27.90
2017-12-02T11:30:55.328Z,27.00
2017-12-02T11:31:55.319Z,26.70
2017-12-02T11:32:55.308Z,27.00
2017-12-02T11:33:55.300Z,27.90
2017-12-02T11:34:55.291Z,28.00
2017-12-02T11:35:55.282Z,28.80
2017-12-02T11:36:55.273Z,28.20
2017-12-02T11:37:55.261Z,27.70
2017-12-02T11:38:55.254Z,28.30
2017-12-02T11:39:55.245Z,29.90
2017-12-02T11:40:55.248Z,29.40
2017-12-02T11:41:55.226Z,29.40
2017-12-02T11:42:55.217Z,29.20
2017-12-02T11:43:55.209Z,28.80
2017-12-02T11:44:55.200Z,25.60
2017-12-02T11:45:55.191Z,29.20
2017-12-02T11:46:55.181Z,27.30
2017-12-02T11:47:55.172Z,27.80
2017-12-02T11:48:55.162Z,28.80
2017-12-02T11:49:55.152Z,28.20
2017-12-02T11:50:55.143Z,27.30
2017-12-02T11:51:55.135Z,28.30
2017-12-02T11:52:55.123Z,27.30
2017-12-02T11:53:55.115Z,26.80
2017-12-02T11:54:55.105Z,25.20
2017-12-02T11:55:55.097Z,26.20
2017-12-02T11:56:55.084Z,26.80
2017-12-02T11:57:55.078Z,27.20
2017-12-02T11:58:55.069Z,27.30
2017-12-02T11:59:55.059Z,26.60
2017-12-02T12:00:55.049Z,26.70
2017-12-02T12:01:55.041Z,28.60
2017-12-02T12:02:55.035Z,26.80
2017-12-02T12:03:55.024Z,27.10
2017-12-02T12:04:55.012Z,26.20
2017-12-02T12:05:55.002Z,28.30
2017-12-02T12:06:54.995Z,29.20
2017-12-02T12:07:54.983Z,29.20
2017-12-02T12:08:54.972Z,28.10
2017-12-02T12:09:54.965Z,29.40
2017-12-02T12:10:54.955Z,29.90
2017-12-02T12:11:54.947Z,29.40
2017-12-02T12:12:54.937Z,31.60
2017-12-02T12:13:54.929Z,31.00
2017-12-02T12:14:54.930Z,31.20
2017-12-02T12:15:54.912Z,29.30
2017-12-02T12:16:54.899Z,29.10
2017-12-02T12:17:54.889Z,28.90
2017-12-02T12:18:54.880Z,30.00
2017-12-02T12:19:54.878Z,28.40
2017-12-02T12:20:54.861Z,29.60
2017-12-02T12:21:54.859Z,29.00
2017-12-02T12:22:54.841Z,30.20
2017-12-02T12:23:54.843Z,29.90
2017-12-02T12:24:54.831Z,28.60
2017-12-02T12:25:54.809Z,27.90
2017-12-02T12:26:54.805Z,28.90
2017-12-02T12:27:54.808Z,29.20
2017-12-02T12:28:54.798Z,28.50
2017-12-02T12:29:54.780Z,26.50
2017-12-02T12:30:54.770Z,26.70
2017-12-02T12:31:54.762Z,26.30
2017-12-02T12:32:54.754Z,26.00
2017-12-02T12:33:54.743Z,26.00
2017-12-02T12:34:54.734Z,26.90
2017-12-02T12:35:54.740Z,26.70
2017-12-02T12:36:54.716Z,26.10
2017-12-02T12:37:54.708Z,27.20
2017-12-02T12:38:54.698Z,26.90
2017-12-02T12:39:54.691Z,27.20
2017-12-02T12:40:54.684Z,26.80
2017-12-02T12:41:54.670Z,27.00
2017-12-02T12:42:54.664Z,27.20
2017-12-02T12:43:54.653Z,27.40
2017-12-02T12:44:54.646Z,28.50
2017-12-02T12:45:54.636Z,32.50
2017-12-02T12:46:54.626Z,33.20
2017-12-02T12:47:54.619Z,48.00
2017-12-02T12:48:54.610Z,32.40
2017-12-02T12:49:54.600Z,30.90
2017-12-02T12:50:54.593Z,33.70
2017-12-02T12:51:54.584Z,32.40
2017-12-02T12:52:54.576Z,31.40
2017-12-02T12:53:54.566Z,31.40
2017-12-02T12:54:54.558Z,33.40
2017-12-02T12:55:54.548Z,32.20
2017-12-02T12:56:54.539Z,30.60
2017-12-02T12:57:54.530Z,29.60
2017-12-02T12:58:54.522Z,29.80
2017-12-02T12:59:54.512Z,29.40